sensor_id;sensor_type;location;lat;lon;timestamp;P1;durP1;ratioP1;P2;durP2;ratioP2
65071;SDS011;51663;52.310;17.016;2023-10-08T16:10:27;1.40;;;1.27;;
65071;SDS011;51663;52.310;17.016;2023-10-08T16:13:30;1.80;;;1.17;;
65071;SDS011;51663;52.310;17.016;2023-10-08T16:16:32;3.80;;;1.37;;
65071;SDS011;51663;52.310;17.016;2023-10-08T16:19:34;2.03;;;1.50;;
65071;SDS011;51663;52.310;17.016;2023-10-08T16:22:42;1.27;;;1.17;;
65071;SDS011;51663;52.310;17.016;2023-10-08T16:25:49;2.33;;;1.63;;
65071;SDS011;51663;52.310;17.016;2023-10-08T16:28:56;2.60;;;1.60;;
65071;SDS011;51663;52.310;17.016;2023-10-08T16:31:59;3.57;;;2.13;;
65071;SDS011;51663;52.310;17.016;2023-10-08T16:35:05;2.50;;;1.90;;
65071;SDS011;51663;52.310;17.016;2023-10-08T16:38:08;3.10;;;1.60;;
65071;SDS011;51663;52.310;17.016;2023-10-08T16:41:11;2.95;;;1.83;;
65071;SDS011;51663;52.310;17.016;2023-10-08T16:44:14;2.67;;;1.33;;
65071;SDS011;51663;52.310;17.016;2023-10-08T16:47:16;8.38;;;6.55;;
65071;SDS011;51663;52.310;17.016;2023-10-08T16:50:19;1.73;;;1.63;;
65071;SDS011;51663;52.310;17.016;2023-10-08T16:53:22;14.93;;;9.87;;
65071;SDS011;51663;52.310;17.016;2023-10-08T16:56:26;4.38;;;3.65;;
65071;SDS011;51663;52.310;17.016;2023-10-08T16:59:28;5.27;;;2.60;;
65071;SDS011;51663;52.310;17.016;2023-10-08T17:02:31;4.07;;;3.77;;
65071;SDS011;51663;52.310;17.016;2023-10-08T17:05:34;5.13;;;3.20;;
65071;SDS011;51663;52.310;17.016;2023-10-08T17:08:37;4.17;;;3.77;;
65071;SDS011;51663;52.310;17.016;2023-10-08T17:11:40;2.87;;;2.63;;
65071;SDS011;51663;52.310;17.016;2023-10-08T17:14:47;10.65;;;6.40;;
65071;SDS011;51663;52.310;17.016;2023-10-08T17:17:50;6.63;;;6.07;;
65071;SDS011;51663;52.310;17.016;2023-10-08T17:20:53;10.20;;;8.70;;
65071;SDS011;51663;52.310;17.016;2023-10-08T17:23:55;4.80;;;3.57;;
65071;SDS011;51663;52.310;17.016;2023-10-08T17:26:58;4.95;;;4.07;;
65071;SDS011;51663;52.310;17.016;2023-10-08T17:30:15;7.35;;;5.80;;
65071;SDS011;51663;52.310;17.016;2023-10-08T17:33:22;19.98;;;12.07;;
65071;SDS011;51663;52.310;17.016;2023-10-08T17:36:24;8.60;;;7.40;;
65071;SDS011;51663;52.310;17.016;2023-10-08T17:39:27;6.57;;;5.82;;
65071;SDS011;51663;52.310;17.016;2023-10-08T17:42:29;7.20;;;5.33;;
65071;SDS011;51663;52.310;17.016;2023-10-08T17:45:33;6.40;;;5.40;;
65071;SDS011;51663;52.310;17.016;2023-10-08T17:48:42;7.67;;;6.87;;
65071;SDS011;51663;52.310;17.016;2023-10-08T17:51:45;6.13;;;5.63;;
65071;SDS011;51663;52.310;17.016;2023-10-08T17:54:47;8.00;;;7.20;;
65071;SDS011;51663;52.310;17.016;2023-10-08T17:57:49;5.67;;;5.00;;
65071;SDS011;51663;52.310;17.016;2023-10-08T18:00:52;4.93;;;4.43;;
65071;SDS011;51663;52.310;17.016;2023-10-08T18:03:55;7.03;;;4.60;;
65071;SDS011;51663;52.310;17.016;2023-10-08T18:06:57;12.77;;;4.70;;
65071;SDS011;51663;52.310;17.016;2023-10-08T18:10:01;6.27;;;4.03;;
65071;SDS011;51663;52.310;17.016;2023-10-08T18:13:04;5.13;;;4.00;;
65071;SDS011;51663;52.310;17.016;2023-10-08T18:16:10;6.57;;;4.97;;
65071;SDS011;51663;52.310;17.016;2023-10-08T18:19:16;4.03;;;3.20;;
65071;SDS011;51663;52.310;17.016;2023-10-08T18:22:20;4.43;;;3.50;;
65071;SDS011;51663;52.310;17.016;2023-10-08T18:25:23;3.57;;;2.90;;
65071;SDS011;51663;52.310;17.016;2023-10-08T18:28:28;3.73;;;3.33;;
65071;SDS011;51663;52.310;17.016;2023-10-08T18:31:30;4.97;;;3.43;;
65071;SDS011;51663;52.310;17.016;2023-10-08T18:34:33;4.87;;;3.47;;
65071;SDS011;51663;52.310;17.016;2023-10-08T18:37:36;4.40;;;3.43;;
65071;SDS011;51663;52.310;17.016;2023-10-08T18:40:38;8.23;;;5.77;;
65071;SDS011;51663;52.310;17.016;2023-10-08T18:43:41;23.47;;;13.13;;
65071;SDS011;51663;52.310;17.016;2023-10-08T18:46:45;7.73;;;5.90;;
65071;SDS011;51663;52.310;17.016;2023-10-08T18:49:51;6.43;;;5.20;;
65071;SDS011;51663;52.310;17.016;2023-10-08T18:53:13;8.33;;;5.27;;
65071;SDS011;51663;52.310;17.016;2023-10-08T18:56:15;5.53;;;5.03;;
65071;SDS011;51663;52.310;17.016;2023-10-08T18:59:20;5.03;;;4.53;;
65071;SDS011;51663;52.310;17.016;2023-10-08T19:02:22;5.03;;;3.80;;
65071;SDS011;51663;52.310;17.016;2023-10-08T19:05:24;5.47;;;4.17;;
65071;SDS011;51663;52.310;17.016;2023-10-08T19:08:26;5.33;;;4.83;;
65071;SDS011;51663;52.310;17.016;2023-10-08T19:11:29;3.60;;;3.07;;
65071;SDS011;51663;52.310;17.016;2023-10-08T19:14:34;4.07;;;3.67;;
65071;SDS011;51663;52.310;17.016;2023-10-08T19:17:37;4.40;;;3.30;;
65071;SDS011;51663;52.310;17.016;2023-10-08T19:20:39;6.50;;;3.10;;
65071;SDS011;51663;52.310;17.016;2023-10-08T19:23:42;6.13;;;3.97;;
65071;SDS011;51663;52.310;17.016;2023-10-08T19:26:46;3.37;;;2.80;;
65071;SDS011;51663;52.310;17.016;2023-10-08T19:29:49;4.70;;;3.27;;
65071;SDS011;51663;52.310;17.016;2023-10-08T19:32:52;6.40;;;3.60;;
65071;SDS011;51663;52.310;17.016;2023-10-08T19:35:55;11.77;;;7.50;;
65071;SDS011;51663;52.310;17.016;2023-10-08T19:38:58;7.33;;;5.00;;
65071;SDS011;51663;52.310;17.016;2023-10-08T19:42:02;7.13;;;4.33;;
65071;SDS011;51663;52.310;17.016;2023-10-08T19:45:06;5.20;;;3.87;;
65071;SDS011;51663;52.310;17.016;2023-10-08T19:48:17;6.57;;;3.70;;
65071;SDS011;51663;52.310;17.016;2023-10-08T19:51:19;5.53;;;3.50;;
65071;SDS011;51663;52.310;17.016;2023-10-08T19:54:22;9.00;;;3.83;;
65071;SDS011;51663;52.310;17.016;2023-10-08T19:57:26;49.83;;;15.20;;
65071;SDS011;51663;52.310;17.016;2023-10-08T20:00:29;87.40;;;28.70;;
65071;SDS011;51663;52.310;17.016;2023-10-08T20:03:32;113.67;;;34.90;;
65071;SDS011;51663;52.310;17.016;2023-10-08T20:06:36;117.00;;;33.87;;
65071;SDS011;51663;52.310;17.016;2023-10-08T20:09:39;228.33;;;52.20;;
65071;SDS011;51663;52.310;17.016;2023-10-08T20:12:45;235.37;;;56.83;;
65071;SDS011;51663;52.310;17.016;2023-10-08T20:15:48;399.60;;;88.87;;
65071;SDS011;51663;52.310;17.016;2023-10-08T20:18:53;339.13;;;80.77;;
65071;SDS011;51663;52.310;17.016;2023-10-08T20:21:57;249.60;;;67.33;;
65071;SDS011;51663;52.310;17.016;2023-10-08T20:25:00;149.97;;;46.37;;
65071;SDS011;51663;52.310;17.016;2023-10-08T20:28:04;120.50;;;40.27;;
65071;SDS011;51663;52.310;17.016;2023-10-08T20:31:11;96.30;;;37.03;;
65071;SDS011;51663;52.310;17.016;2023-10-08T20:34:15;108.00;;;39.10;;
65071;SDS011;51663;52.310;17.016;2023-10-08T20:37:17;105.67;;;39.77;;
65071;SDS011;51663;52.310;17.016;2023-10-08T20:40:19;77.87;;;32.70;;
65071;SDS011;51663;52.310;17.016;2023-10-08T20:43:33;93.17;;;36.60;;
65071;SDS011;51663;52.310;17.016;2023-10-08T20:46:36;121.73;;;40.63;;
65071;SDS011;51663;52.310;17.016;2023-10-08T20:49:39;116.30;;;44.17;;
65071;SDS011;51663;52.310;17.016;2023-10-08T20:52:45;87.90;;;36.80;;
65071;SDS011;51663;52.310;17.016;2023-10-08T20:55:48;83.63;;;36.07;;
65071;SDS011;51663;52.310;17.016;2023-10-08T20:58:51;74.93;;;34.13;;
65071;SDS011;51663;52.310;17.016;2023-10-08T21:01:54;68.63;;;33.90;;
65071;SDS011;51663;52.310;17.016;2023-10-08T21:04:58;92.73;;;37.33;;
65071;SDS011;51663;52.310;17.016;2023-10-08T21:08:01;106.03;;;37.00;;
65071;SDS011;51663;52.310;17.016;2023-10-08T21:11:03;56.57;;;24.40;;
65071;SDS011;51663;52.310;17.016;2023-10-08T21:14:05;55.30;;;23.53;;
65071;SDS011;51663;52.310;17.016;2023-10-08T21:17:08;65.13;;;28.10;;
65071;SDS011;51663;52.310;17.016;2023-10-08T21:20:10;69.03;;;27.10;;
65071;SDS011;51663;52.310;17.016;2023-10-08T21:23:13;73.90;;;28.20;;
65071;SDS011;51663;52.310;17.016;2023-10-08T21:26:17;73.03;;;29.67;;
65071;SDS011;51663;52.310;17.016;2023-10-08T21:29:22;81.70;;;30.73;;
65071;SDS011;51663;52.310;17.016;2023-10-08T21:32:25;89.83;;;33.60;;
65071;SDS011;51663;52.310;17.016;2023-10-08T21:35:27;103.00;;;41.30;;
65071;SDS011;51663;52.310;17.016;2023-10-08T21:38:33;90.70;;;38.97;;
65071;SDS011;51663;52.310;17.016;2023-10-08T21:41:36;77.20;;;35.73;;
65071;SDS011;51663;52.310;17.016;2023-10-08T21:44:39;62.40;;;30.23;;
65071;SDS011;51663;52.310;17.016;2023-10-08T21:47:41;54.97;;;26.20;;
65071;SDS011;51663;52.310;17.016;2023-10-08T21:50:44;58.43;;;30.27;;
65071;SDS011;51663;52.310;17.016;2023-10-08T21:53:47;64.83;;;34.03;;
65071;SDS011;51663;52.310;17.016;2023-10-08T21:56:49;60.87;;;32.70;;
65071;SDS011;51663;52.310;17.016;2023-10-08T21:59:52;61.00;;;30.67;;
65071;SDS011;51663;52.310;17.016;2023-10-08T22:02:58;60.20;;;29.97;;
65071;SDS011;51663;52.310;17.016;2023-10-08T22:06:02;61.37;;;31.87;;
65071;SDS011;51663;52.310;17.016;2023-10-08T22:09:04;69.70;;;33.30;;
65071;SDS011;51663;52.310;17.016;2023-10-08T22:12:17;60.23;;;31.73;;
65071;SDS011;51663;52.310;17.016;2023-10-08T22:15:20;50.23;;;26.00;;
65071;SDS011;51663;52.310;17.016;2023-10-08T22:18:30;49.47;;;24.53;;
65071;SDS011;51663;52.310;17.016;2023-10-08T22:21:34;65.40;;;32.73;;
65071;SDS011;51663;52.310;17.016;2023-10-08T22:24:36;60.77;;;30.57;;
65071;SDS011;51663;52.310;17.016;2023-10-08T22:27:42;57.10;;;27.27;;
65071;SDS011;51663;52.310;17.016;2023-10-08T22:30:44;60.70;;;27.60;;
65071;SDS011;51663;52.310;17.016;2023-10-08T22:33:56;84.00;;;35.00;;
65071;SDS011;51663;52.310;17.016;2023-10-08T22:37:06;88.90;;;36.30;;
65071;SDS011;51663;52.310;17.016;2023-10-08T22:40:21;83.10;;;35.60;;
65071;SDS011;51663;52.310;17.016;2023-10-08T22:43:23;72.67;;;33.07;;
65071;SDS011;51663;52.310;17.016;2023-10-08T22:46:30;65.57;;;29.53;;
65071;SDS011;51663;52.310;17.016;2023-10-08T22:49:36;56.97;;;26.40;;
65071;SDS011;51663;52.310;17.016;2023-10-08T22:52:39;57.60;;;26.47;;
65071;SDS011;51663;52.310;17.016;2023-10-08T22:55:41;50.73;;;23.93;;
65071;SDS011;51663;52.310;17.016;2023-10-08T22:58:46;40.13;;;21.83;;
65071;SDS011;51663;52.310;17.016;2023-10-08T23:01:49;43.40;;;22.33;;
65071;SDS011;51663;52.310;17.016;2023-10-08T23:04:55;48.77;;;23.27;;
65071;SDS011;51663;52.310;17.016;2023-10-08T23:07:58;39.57;;;20.10;;
65071;SDS011;51663;52.310;17.016;2023-10-08T23:11:02;42.30;;;20.20;;
65071;SDS011;51663;52.310;17.016;2023-10-08T23:14:05;53.37;;;23.23;;
65071;SDS011;51663;52.310;17.016;2023-10-08T23:17:10;62.40;;;27.07;;
65071;SDS011;51663;52.310;17.016;2023-10-08T23:20:13;59.77;;;26.23;;
65071;SDS011;51663;52.310;17.016;2023-10-08T23:23:17;46.20;;;22.50;;
65071;SDS011;51663;52.310;17.016;2023-10-08T23:26:21;25.40;;;15.60;;
65071;SDS011;51663;52.310;17.016;2023-10-08T23:29:24;31.37;;;17.97;;
65071;SDS011;51663;52.310;17.016;2023-10-08T23:32:26;33.30;;;17.73;;
65071;SDS011;51663;52.310;17.016;2023-10-08T23:35:29;35.50;;;20.50;;
65071;SDS011;51663;52.310;17.016;2023-10-08T23:38:31;50.43;;;23.13;;
65071;SDS011;51663;52.310;17.016;2023-10-08T23:41:34;53.13;;;22.43;;
65071;SDS011;51663;52.310;17.016;2023-10-08T23:44:49;57.00;;;23.97;;
65071;SDS011;51663;52.310;17.016;2023-10-08T23:47:52;43.03;;;19.57;;
65071;SDS011;51663;52.310;17.016;2023-10-08T23:51:10;41.00;;;18.80;;
65071;SDS011;51663;52.310;17.016;2023-10-08T23:54:14;38.97;;;18.27;;
65071;SDS011;51663;52.310;17.016;2023-10-08T23:57:27;36.50;;;16.23;;
